createdAt,value
2022-08-09T00:00:16.854Z,18.13
2022-08-09T00:01:17.128Z,18.11
2022-08-09T00:02:16.733Z,18.06
2022-08-09T00:04:01.118Z,18.06
2022-08-09T00:04:35.193Z,17.99
2022-08-09T00:06:16.833Z,17.95
2022-08-09T00:06:22.667Z,17.95
2022-08-09T00:07:17.026Z,17.89
2022-08-09T00:08:31.730Z,17.88
2022-08-09T00:09:17.264Z,17.88
2022-08-09T00:10:18.318Z,17.88
2022-08-09T00:11:24.100Z,17.84
2022-08-09T00:12:22.609Z,17.76
2022-08-09T00:13:18.155Z,17.77
2022-08-09T00:14:17.163Z,17.77
2022-08-09T00:15:16.373Z,17.74
2022-08-09T00:16:17.017Z,17.71
2022-08-09T00:18:04.990Z,17.71
2022-08-09T00:18:16.721Z,17.74
2022-08-09T00:19:18.430Z,17.78
2022-08-09T00:20:17.036Z,17.78
2022-08-09T00:21:17.270Z,17.74
2022-08-09T00:22:16.641Z,17.73
2022-08-09T00:23:54.376Z,17.73
2022-08-09T00:24:17.181Z,17.71
2022-08-09T00:25:23.009Z,17.67
2022-08-09T00:26:16.329Z,17.67
2022-08-09T00:27:16.668Z,17.63
2022-08-09T00:28:17.114Z,17.66
2022-08-09T00:29:38.947Z,17.60
2022-08-09T00:30:25.845Z,17.57
2022-08-09T00:31:30.880Z,17.56
2022-08-09T00:32:25.545Z,17.56
2022-08-09T00:33:16.740Z,17.56
2022-08-09T00:34:18.971Z,17.53
2022-08-09T00:35:17.305Z,17.47
2022-08-09T00:36:16.734Z,17.49
2022-08-09T00:37:17.178Z,17.46
2022-08-09T00:38:16.668Z,17.40
2022-08-09T00:39:17.174Z,17.35
2022-08-09T00:40:17.502Z,17.35
2022-08-09T00:44:08.698Z,17.39
2022-08-09T00:44:08.957Z,17.42
2022-08-09T00:44:09.440Z,17.37
2022-08-09T00:44:25.222Z,17.43
2022-08-09T00:45:16.976Z,17.61
2022-08-09T00:46:28.595Z,17.60
2022-08-09T00:47:16.673Z,17.57
2022-08-09T00:48:19.411Z,17.54
2022-08-09T00:49:16.939Z,17.52
2022-08-09T00:50:16.346Z,17.43
2022-08-09T00:51:16.761Z,17.36
2022-08-09T00:52:17.843Z,17.35
2022-08-09T00:53:16.382Z,17.27
2022-08-09T00:54:16.900Z,17.26
2022-08-09T00:55:33.033Z,17.29
2022-08-09T00:56:16.486Z,17.29
2022-08-09T00:57:24.863Z,17.32
2022-08-09T00:58:22.317Z,17.32
2022-08-09T00:59:20.262Z,17.29
2022-08-09T01:00:20.405Z,17.29
2022-08-09T01:01:17.088Z,17.30
2022-08-09T01:02:17.299Z,17.27
2022-08-09T01:03:16.418Z,17.19
2022-08-09T01:04:16.381Z,17.12
2022-08-09T01:05:21.763Z,17.11
2022-08-09T01:06:17.662Z,17.11
2022-08-09T01:07:17.000Z,17.09
2022-08-09T01:08:16.537Z,17.09
2022-08-09T01:09:17.271Z,17.05
2022-08-09T01:10:16.761Z,17.07
2022-08-09T01:11:16.713Z,17.11
2022-08-09T01:12:16.400Z,17.12
2022-08-09T01:13:17.041Z,17.08
2022-08-09T01:14:16.843Z,17.02
2022-08-09T01:15:16.795Z,17.05
2022-08-09T01:16:16.499Z,16.99
2022-08-09T01:17:16.489Z,16.92
2022-08-09T01:18:16.402Z,16.92
2022-08-09T01:19:28.941Z,16.88
2022-08-09T01:20:17.166Z,16.80
2022-08-09T01:21:16.306Z,16.75
2022-08-09T01:22:16.842Z,16.73
2022-08-09T01:24:01.401Z,16.71
2022-08-09T01:24:16.851Z,16.71
2022-08-09T01:25:17.633Z,16.71
2022-08-09T01:26:17.311Z,16.67
2022-08-09T01:27:17.788Z,16.60
2022-08-09T01:28:16.332Z,16.59
2022-08-09T01:29:16.780Z,16.54
2022-08-09T01:30:28.356Z,16.53
2022-08-09T01:31:23.439Z,16.52
2022-08-09T01:32:30.607Z,16.54
2022-08-09T01:33:16.538Z,16.50
2022-08-09T01:34:16.964Z,16.50
2022-08-09T01:35:18.154Z,16.46
2022-08-09T01:36:17.271Z,16.39
2022-08-09T01:37:16.707Z,16.29
2022-08-09T01:38:17.219Z,16.21
2022-08-09T01:39:16.370Z,16.18
2022-08-09T01:40:23.059Z,16.12
2022-08-09T01:41:17.071Z,16.11
2022-08-09T01:42:16.535Z,16.08
2022-08-09T01:43:16.998Z,16.07
2022-08-09T01:44:16.682Z,16.07
2022-08-09T01:45:16.568Z,16.04
2022-08-09T01:46:18.329Z,16.07
2022-08-09T01:47:17.390Z,16.11
2022-08-09T01:48:16.977Z,16.15
2022-08-09T01:49:16.711Z,16.09
2022-08-09T01:50:16.385Z,16.02
2022-08-09T01:51:22.890Z,16.01
2022-08-09T01:52:16.550Z,15.97
2022-08-09T01:53:19.705Z,15.94
2022-08-09T01:54:17.001Z,15.95
2022-08-09T01:55:16.773Z,15.92
2022-08-09T01:56:16.722Z,15.87
2022-08-09T01:57:17.151Z,15.87
2022-08-09T01:58:16.961Z,15.83
2022-08-09T01:59:16.427Z,15.77
2022-08-09T02:00:19.503Z,15.78
2022-08-09T02:01:18.201Z,15.77
2022-08-09T02:02:16.647Z,15.70
2022-08-09T02:03:16.408Z,15.70
2022-08-09T02:04:16.872Z,15.69
2022-08-09T02:05:16.286Z,15.69
2022-08-09T02:06:16.747Z,15.67
2022-08-09T02:07:18.101Z,15.64
2022-08-09T02:08:36.143Z,15.59
2022-08-09T02:09:17.217Z,15.56
2022-08-09T02:10:16.694Z,15.55
2022-08-09T02:11:17.609Z,15.52
2022-08-09T02:12:18.130Z,15.52
2022-08-09T02:13:17.201Z,15.47
2022-08-09T02:14:25.403Z,15.46
2022-08-09T02:15:17.166Z,15.42
2022-08-09T02:16:16.687Z,15.42
2022-08-09T02:17:29.570Z,15.41
2022-08-09T02:18:16.537Z,15.42
2022-08-09T02:19:17.015Z,15.41
2022-08-09T02:20:25.158Z,15.35
2022-08-09T02:21:17.214Z,15.29
2022-08-09T02:22:16.864Z,15.28
2022-08-09T02:23:17.024Z,15.27
2022-08-09T02:24:25.717Z,15.28
2022-08-09T02:25:17.423Z,15.25
2022-08-09T02:26:24.762Z,15.23
2022-08-09T02:27:18.640Z,15.19
2022-08-09T02:28:17.829Z,15.19
2022-08-09T02:29:16.542Z,15.19
2022-08-09T02:30:16.975Z,15.15
2022-08-09T02:31:17.246Z,15.22
2022-08-09T02:32:16.990Z,15.25
2022-08-09T02:33:17.078Z,15.25
2022-08-09T02:34:25.636Z,15.17
2022-08-09T02:35:17.216Z,15.01
2022-08-09T02:36:16.449Z,14.94
2022-08-09T02:37:16.605Z,14.94
2022-08-09T02:38:21.932Z,14.88
2022-08-09T02:39:20.215Z,14.88
2022-08-09T02:40:18.618Z,14.82
2022-08-09T02:41:16.897Z,14.82
2022-08-09T02:42:17.272Z,14.79
2022-08-09T02:43:16.875Z,14.77
2022-08-09T02:44:28.977Z,14.77
2022-08-09T02:45:16.898Z,14.76
2022-08-09T02:46:16.324Z,14.74
2022-08-09T02:47:16.762Z,14.74
2022-08-09T02:48:19.417Z,14.76
2022-08-09T02:49:16.936Z,14.72
2022-08-09T02:50:16.371Z,14.67
2022-08-09T02:51:16.614Z,14.67
2022-08-09T02:52:16.495Z,14.66
2022-08-09T02:53:17.450Z,14.63
2022-08-09T02:54:17.260Z,14.59
2022-08-09T02:55:20.458Z,14.60
2022-08-09T02:56:16.875Z,14.58
2022-08-09T02:57:23.051Z,14.59
2022-08-09T02:58:33.190Z,14.60
2022-08-09T02:59:26.109Z,14.56
2022-08-09T03:00:21.658Z,14.56
2022-08-09T03:01:21.571Z,14.52
2022-08-09T03:02:17.304Z,14.52
2022-08-09T03:03:21.649Z,14.52
2022-08-09T03:04:18.529Z,14.46
2022-08-09T03:05:16.576Z,14.48
2022-08-09T03:06:16.342Z,14.42
2022-08-09T03:07:16.800Z,14.42
2022-08-09T03:08:17.275Z,14.40
2022-08-09T03:09:17.306Z,14.43
2022-08-09T03:10:17.188Z,14.45
2022-08-09T03:11:29.461Z,14.45
2022-08-09T03:12:16.552Z,14.42
2022-08-09T03:13:16.965Z,14.38
2022-08-09T03:14:16.406Z,14.46
2022-08-09T03:15:16.884Z,14.46
2022-08-09T03:16:16.305Z,14.43
2022-08-09T03:17:20.369Z,14.38
2022-08-09T03:18:16.956Z,14.42
2022-08-09T03:19:52.104Z,14.42
2022-08-09T03:20:16.843Z,14.33
2022-08-09T03:21:16.894Z,14.32
2022-08-09T03:22:19.692Z,14.28
2022-08-09T03:23:24.282Z,14.42
2022-08-09T03:24:17.186Z,14.56
2022-08-09T03:25:22.110Z,14.65
2022-08-09T03:26:17.025Z,14.58
2022-08-09T03:27:17.015Z,14.53
2022-08-09T03:28:16.996Z,14.53
2022-08-09T03:29:22.843Z,14.46
2022-08-09T03:30:29.438Z,14.46
2022-08-09T03:31:21.155Z,14.45
2022-08-09T03:32:16.860Z,14.42
2022-08-09T03:33:18.607Z,14.40
2022-08-09T03:34:16.957Z,14.42
2022-08-09T03:35:24.562Z,14.52
2022-08-09T03:36:17.310Z,14.73
2022-08-09T03:37:55.072Z,14.65
2022-08-09T03:38:29.094Z,14.67
2022-08-09T03:39:16.870Z,14.63
2022-08-09T03:40:17.007Z,14.72
2022-08-09T03:41:18.508Z,14.72
2022-08-09T03:42:16.570Z,14.59
2022-08-09T03:43:16.564Z,14.56
2022-08-09T03:44:16.996Z,14.56
2022-08-09T03:45:17.077Z,14.53
2022-08-09T03:46:20.354Z,14.53
2022-08-09T03:47:16.698Z,14.48
2022-08-09T03:48:18.908Z,14.40
2022-08-09T03:49:17.599Z,14.39
2022-08-09T03:50:18.985Z,14.38
2022-08-09T03:51:44.366Z,14.35
2022-08-09T03:52:16.824Z,14.27
2022-08-09T03:53:16.601Z,14.24
2022-08-09T03:54:16.387Z,14.27
2022-08-09T03:55:16.866Z,14.27
2022-08-09T03:56:17.078Z,14.29
2022-08-09T03:57:18.233Z,14.29
2022-08-09T03:58:17.123Z,14.27
2022-08-09T03:59:17.349Z,14.21
2022-08-09T04:00:17.005Z,14.20
2022-08-09T04:01:16.929Z,14.22
2022-08-09T04:02:19.718Z,14.24
2022-08-09T04:03:19.820Z,14.22
2022-08-09T04:04:17.038Z,14.15
2022-08-09T04:05:17.291Z,14.21
2022-08-09T04:06:16.615Z,14.21
2022-08-09T04:07:17.251Z,14.20
2022-08-09T04:08:16.704Z,14.08
2022-08-09T04:09:42.237Z,14.07
2022-08-09T04:10:18.181Z,14.07
2022-08-09T04:11:17.171Z,14.07
2022-08-09T04:12:30.297Z,14.10
2022-08-09T04:13:18.613Z,14.08
2022-08-09T04:14:37.984Z,14.07
2022-08-09T04:15:17.092Z,14.05
2022-08-09T04:16:20.426Z,14.05
2022-08-09T04:17:17.086Z,14.14
2022-08-09T04:18:18.229Z,14.17
2022-08-09T04:19:30.187Z,14.18
2022-08-09T04:20:16.548Z,14.18
2022-08-09T04:21:17.011Z,14.20
2022-08-09T04:22:16.721Z,14.24
2022-08-09T04:23:16.631Z,14.27
2022-08-09T04:24:16.490Z,14.25
2022-08-09T04:25:16.697Z,14.36
2022-08-09T04:26:16.376Z,14.36
2022-08-09T04:27:16.929Z,14.39
2022-08-09T04:28:16.835Z,14.42
2022-08-09T04:29:16.310Z,14.46
2022-08-09T04:30:16.772Z,14.46
2022-08-09T04:31:17.215Z,14.51
2022-08-09T04:32:16.987Z,14.58
2022-08-09T04:33:16.559Z,14.79
2022-08-09T04:34:18.926Z,14.84
2022-08-09T04:35:17.092Z,14.83
2022-08-09T04:36:16.862Z,14.86
2022-08-09T04:37:17.265Z,14.87
2022-08-09T04:38:16.453Z,14.90
2022-08-09T04:39:16.912Z,14.95
2022-08-09T04:40:19.425Z,15.02
2022-08-09T04:41:16.811Z,15.08
2022-08-09T04:42:16.910Z,15.12
2022-08-09T04:43:17.024Z,15.19
2022-08-09T04:44:17.136Z,15.23
2022-08-09T04:45:16.661Z,15.25
2022-08-09T04:46:19.418Z,15.29
2022-08-09T04:47:16.341Z,15.35
2022-08-09T04:48:16.992Z,15.38
2022-08-09T04:49:16.938Z,15.42
2022-08-09T04:50:16.778Z,15.45
2022-08-09T04:51:17.205Z,15.47
2022-08-09T04:52:18.787Z,15.53
2022-08-09T04:53:16.994Z,15.60
2022-08-09T04:54:16.488Z,15.76
2022-08-09T04:55:16.905Z,15.77
2022-08-09T04:56:16.319Z,15.85
2022-08-09T04:57:17.157Z,15.91
2022-08-09T04:58:16.535Z,15.83
2022-08-09T04:59:16.967Z,15.78
2022-08-09T05:00:17.298Z,15.80
2022-08-09T05:01:18.857Z,15.81
2022-08-09T05:02:16.415Z,15.83
2022-08-09T05:03:30.868Z,15.88
2022-08-09T05:04:16.372Z,16.05
2022-08-09T05:05:18.882Z,16.14
2022-08-09T05:06:22.179Z,16.25
2022-08-09T05:07:19.159Z,16.29
2022-08-09T05:08:16.418Z,16.45
2022-08-09T05:09:16.664Z,16.53
2022-08-09T05:10:17.097Z,16.56
2022-08-09T05:11:17.043Z,16.56
2022-08-09T05:12:17.064Z,16.60
2022-08-09T05:13:16.486Z,16.62
2022-08-09T05:14:16.933Z,16.66
2022-08-09T05:15:24.754Z,16.67
2022-08-09T05:16:16.819Z,16.71
2022-08-09T05:18:37.384Z,16.73
2022-08-09T05:18:40.126Z,16.77
2022-08-09T05:19:18.977Z,16.97
2022-08-09T05:20:16.553Z,17.14
2022-08-09T05:21:20.959Z,17.22
2022-08-09T05:22:33.642Z,17.36
2022-08-09T05:23:55.068Z,17.46
2022-08-09T05:24:16.793Z,17.52
2022-08-09T05:25:17.235Z,17.56
2022-08-09T05:26:22.361Z,17.73
2022-08-09T05:27:17.172Z,17.77
2022-08-09T05:28:16.686Z,17.84
2022-08-09T05:29:17.993Z,17.91
2022-08-09T05:30:17.799Z,18.01
2022-08-09T05:31:16.942Z,17.99
2022-08-09T05:32:16.382Z,18.02
2022-08-09T05:33:16.833Z,18.12
2022-08-09T05:34:16.732Z,18.19
2022-08-09T05:35:17.074Z,18.29
2022-08-09T05:36:16.516Z,18.34
2022-08-09T05:37:17.094Z,18.42
2022-08-09T05:38:21.882Z,18.51
2022-08-09T05:39:28.676Z,18.63
2022-08-09T05:40:16.526Z,18.64
2022-08-09T05:41:16.971Z,18.67
2022-08-09T05:42:17.107Z,18.74
2022-08-09T05:43:17.157Z,18.79
2022-08-09T05:44:16.366Z,18.67
2022-08-09T05:45:16.668Z,18.77
2022-08-09T05:46:17.129Z,18.92
2022-08-09T05:47:16.590Z,18.92
2022-08-09T05:48:17.063Z,18.91
2022-08-09T05:49:19.132Z,19.09
2022-08-09T05:50:31.699Z,19.17
2022-08-09T05:51:29.850Z,19.23
2022-08-09T05:52:16.637Z,19.22
2022-08-09T05:53:21.909Z,19.22
2022-08-09T05:54:17.897Z,19.43
2022-08-09T05:55:18.342Z,19.50
2022-08-09T05:56:16.743Z,19.44
2022-08-09T05:57:17.429Z,19.40
2022-08-09T05:58:18.399Z,19.61
2022-08-09T05:59:16.970Z,19.67
2022-08-09T06:00:16.399Z,19.86
2022-08-09T06:01:16.720Z,19.85
2022-08-09T06:02:16.765Z,19.79
2022-08-09T06:03:19.600Z,19.72
2022-08-09T06:04:17.023Z,19.91
2022-08-09T06:05:16.883Z,20.02
2022-08-09T06:06:16.332Z,19.92
2022-08-09T06:07:21.273Z,20.12
2022-08-09T06:08:19.261Z,20.33
2022-08-09T06:09:23.365Z,20.34
2022-08-09T06:10:18.028Z,20.34
2022-08-09T06:11:17.331Z,20.52
2022-08-09T06:12:17.166Z,20.52
2022-08-09T06:13:18.533Z,20.82
2022-08-09T06:14:16.372Z,20.83
2022-08-09T06:15:16.816Z,20.83
2022-08-09T06:16:17.256Z,20.88
2022-08-09T06:17:16.742Z,20.95
2022-08-09T06:18:16.805Z,20.95
2022-08-09T06:19:17.298Z,21.02
2022-08-09T06:20:18.242Z,21.14
2022-08-09T06:21:16.753Z,21.31
2022-08-09T06:22:17.268Z,21.45
2022-08-09T06:23:16.706Z,21.45
2022-08-09T06:24:17.136Z,21.34
2022-08-09T06:25:16.550Z,21.33
2022-08-09T06:26:20.706Z,21.38
2022-08-09T06:27:16.839Z,21.29
2022-08-09T06:28:16.508Z,21.27
2022-08-09T06:29:17.048Z,21.47
2022-08-09T06:30:17.002Z,21.54
2022-08-09T06:31:17.213Z,21.65
2022-08-09T06:32:53.837Z,21.98
2022-08-09T06:33:30.746Z,21.85
2022-08-09T06:34:16.781Z,21.83
2022-08-09T06:35:16.444Z,21.91
2022-08-09T06:36:17.107Z,21.99
2022-08-09T06:37:16.389Z,22.23
2022-08-09T06:38:16.534Z,22.45
2022-08-09T06:39:16.992Z,22.68
2022-08-09T06:40:22.038Z,22.68
2022-08-09T06:41:18.439Z,22.72
2022-08-09T06:42:16.662Z,22.43
2022-08-09T06:43:17.287Z,22.61
2022-08-09T06:44:18.167Z,22.65
2022-08-09T06:45:20.527Z,22.90
2022-08-09T06:46:38.963Z,23.17
2022-08-09T06:47:16.918Z,23.36
2022-08-09T06:48:16.904Z,23.51
2022-08-09T06:49:22.845Z,23.64
2022-08-09T06:50:19.148Z,23.79
2022-08-09T06:51:16.895Z,23.95
2022-08-09T06:52:16.836Z,24.41
2022-08-09T06:53:16.596Z,24.36
2022-08-09T06:54:17.230Z,24.31
2022-08-09T06:55:16.774Z,24.51
2022-08-09T06:56:17.230Z,24.66
2022-08-09T06:57:16.453Z,24.90
2022-08-09T06:58:28.538Z,25.00
2022-08-09T07:00:53.561Z,25.14
2022-08-09T07:00:53.573Z,25.14
2022-08-09T07:01:17.291Z,25.66
2022-08-09T07:02:17.101Z,25.21
2022-08-09T07:03:16.663Z,25.62
2022-08-09T07:04:19.611Z,25.23
2022-08-09T07:05:16.744Z,25.14
2022-08-09T07:06:16.931Z,25.69
2022-08-09T07:07:58.484Z,26.31
2022-08-09T07:08:16.799Z,26.75
2022-08-09T07:09:54.115Z,26.76
2022-08-09T07:10:24.448Z,26.50
2022-08-09T07:11:17.774Z,27.32
2022-08-09T07:12:17.766Z,27.65
2022-08-09T07:13:18.671Z,28.19
2022-08-09T07:14:16.713Z,28.51
2022-08-09T07:15:53.681Z,28.58
2022-08-09T07:16:40.035Z,28.39
2022-08-09T07:17:16.514Z,28.00
2022-08-09T07:18:16.980Z,28.09
2022-08-09T07:19:18.872Z,28.42
2022-08-09T07:20:17.293Z,28.38
2022-08-09T07:21:16.773Z,28.10
2022-08-09T07:22:17.065Z,28.16
2022-08-09T07:23:19.325Z,27.69
2022-08-09T07:24:16.329Z,27.54
2022-08-09T07:25:16.368Z,27.76
2022-08-09T07:26:16.815Z,27.68
2022-08-09T07:27:26.556Z,27.69
2022-08-09T07:28:19.079Z,27.41
2022-08-09T07:29:16.693Z,28.07
2022-08-09T07:30:16.811Z,28.51
2022-08-09T07:31:16.885Z,28.73
2022-08-09T07:32:16.993Z,27.89
2022-08-09T07:33:16.797Z,28.32
2022-08-09T07:34:19.338Z,28.69
2022-08-09T07:35:16.933Z,28.49
2022-08-09T07:36:16.927Z,28.09
2022-08-09T07:37:16.495Z,27.97
2022-08-09T07:38:16.928Z,28.00
2022-08-09T07:39:20.066Z,27.85
2022-08-09T07:40:18.397Z,27.94
2022-08-09T07:41:16.413Z,28.24
2022-08-09T07:42:17.205Z,27.82
2022-08-09T07:43:17.073Z,28.16
2022-08-09T07:44:16.799Z,28.52
2022-08-09T07:45:23.153Z,29.00
2022-08-09T07:46:17.232Z,28.96
2022-08-09T07:47:17.031Z,29.34
2022-08-09T07:48:22.881Z,29.33
2022-08-09T07:49:16.953Z,29.40
2022-08-09T07:50:16.388Z,29.09
2022-08-09T07:52:02.938Z,29.10
2022-08-09T07:52:17.921Z,29.41
2022-08-09T07:53:16.753Z,29.80
2022-08-09T07:54:19.315Z,29.14
2022-08-09T07:55:16.340Z,28.90
2022-08-09T07:56:26.572Z,28.90
2022-08-09T07:57:16.837Z,29.13
2022-08-09T07:58:16.293Z,28.85
2022-08-09T07:59:25.855Z,29.10
2022-08-09T08:00:20.409Z,28.99
2022-08-09T08:01:16.963Z,28.96
2022-08-09T08:02:16.687Z,29.35
2022-08-09T08:03:16.605Z,29.16
2022-08-09T08:04:16.496Z,29.54
2022-08-09T08:05:17.867Z,29.55
2022-08-09T08:06:21.133Z,29.86
2022-08-09T08:08:06.013Z,29.77
2022-08-09T08:08:44.807Z,29.24
2022-08-09T08:09:18.313Z,29.51
2022-08-09T08:10:18.343Z,29.49
2022-08-09T08:12:11.748Z,29.63
2022-08-09T08:12:25.202Z,29.79
2022-08-09T08:13:16.376Z,30.08
2022-08-09T08:14:17.008Z,29.37
2022-08-09T08:15:17.453Z,29.37
2022-08-09T08:16:30.090Z,29.21
2022-08-09T08:17:24.928Z,29.45
2022-08-09T08:18:16.991Z,30.42
2022-08-09T08:19:17.357Z,29.90
2022-08-09T08:20:17.107Z,29.55
2022-08-09T08:21:17.068Z,29.99
2022-08-09T08:22:16.749Z,30.39
2022-08-09T08:23:17.652Z,30.87
2022-08-09T08:24:16.492Z,30.97
2022-08-09T08:25:17.202Z,28.72
2022-08-09T08:26:16.867Z,28.71
2022-08-09T08:27:18.654Z,29.97
2022-08-09T08:28:18.107Z,30.87
2022-08-09T08:29:19.982Z,30.89
2022-08-09T08:30:16.675Z,30.90
2022-08-09T08:31:17.172Z,32.03
2022-08-09T08:32:18.885Z,32.63
2022-08-09T08:33:23.115Z,32.39
2022-08-09T08:34:17.143Z,31.94
2022-08-09T08:35:18.075Z,30.65
2022-08-09T08:36:28.239Z,30.47
2022-08-09T08:37:17.755Z,30.21
2022-08-09T08:38:16.296Z,30.32
2022-08-09T08:39:17.380Z,29.92
2022-08-09T08:40:16.949Z,30.47
2022-08-09T08:41:16.606Z,30.51
2022-08-09T08:42:17.141Z,29.80
2022-08-09T08:43:16.579Z,30.11
2022-08-09T08:44:18.428Z,30.20
2022-08-09T08:45:16.845Z,29.83
2022-08-09T08:46:31.840Z,29.86
2022-08-09T08:47:16.540Z,29.90
2022-08-09T08:48:19.484Z,29.54
2022-08-09T08:49:18.910Z,28.35
2022-08-09T08:50:18.033Z,29.13
2022-08-09T08:51:18.159Z,29.93
2022-08-09T08:52:35.234Z,30.28
2022-08-09T08:53:21.531Z,30.04
2022-08-09T08:54:20.066Z,30.56
2022-08-09T08:55:19.221Z,31.24
2022-08-09T08:56:25.142Z,31.37
2022-08-09T08:57:16.403Z,31.87
2022-08-09T08:58:16.475Z,31.07
2022-08-09T08:59:19.582Z,31.09
2022-08-09T09:00:21.048Z,31.69
2022-08-09T09:01:20.706Z,31.87
2022-08-09T09:02:21.048Z,31.31
2022-08-09T09:03:22.897Z,31.10
2022-08-09T09:04:16.928Z,31.12
2022-08-09T09:05:17.001Z,31.25
2022-08-09T09:06:17.106Z,30.61
2022-08-09T09:07:16.556Z,30.65
2022-08-09T09:08:29.526Z,30.00
2022-08-09T09:09:20.912Z,29.95
2022-08-09T09:10:17.075Z,30.62
2022-08-09T09:11:17.969Z,31.10
2022-08-09T09:12:17.251Z,30.86
2022-08-09T09:13:16.715Z,30.83
2022-08-09T09:14:16.425Z,31.28
2022-08-09T09:15:28.100Z,31.44
2022-08-09T09:16:16.320Z,31.52
2022-08-09T09:17:16.723Z,31.40
2022-08-09T09:18:17.219Z,31.12
2022-08-09T09:19:29.356Z,30.65
2022-08-09T09:20:16.880Z,30.86
2022-08-09T09:21:16.698Z,30.10
2022-08-09T09:22:16.946Z,30.59
2022-08-09T09:23:16.538Z,31.18
2022-08-09T09:24:19.743Z,31.06
2022-08-09T09:26:00.703Z,30.97
2022-08-09T09:26:16.971Z,31.09
2022-08-09T09:27:21.856Z,31.12
2022-08-09T09:28:21.500Z,31.21
2022-08-09T09:29:17.452Z,31.71
2022-08-09T09:30:26.086Z,31.80
2022-08-09T09:31:17.347Z,32.14
2022-08-09T09:32:16.505Z,32.10
2022-08-09T09:33:17.797Z,32.24
2022-08-09T09:34:18.232Z,32.58
2022-08-09T09:35:17.723Z,32.26
2022-08-09T09:36:20.747Z,32.17
2022-08-09T09:37:16.399Z,31.62
2022-08-09T09:38:18.527Z,31.65
2022-08-09T09:39:17.028Z,31.73
2022-08-09T09:40:17.670Z,31.13
2022-08-09T09:41:16.468Z,30.24
2022-08-09T09:42:16.869Z,29.76
2022-08-09T09:43:16.620Z,30.20
2022-08-09T09:44:25.631Z,30.30
2022-08-09T09:45:25.701Z,30.76
2022-08-09T09:46:42.753Z,30.97
2022-08-09T09:47:16.732Z,31.16
2022-08-09T09:48:17.094Z,31.21
2022-08-09T09:49:16.637Z,30.93
2022-08-09T09:50:17.641Z,29.66
2022-08-09T09:51:18.788Z,30.13
2022-08-09T09:52:33.778Z,30.63
2022-08-09T09:53:16.941Z,30.59
2022-08-09T09:54:19.287Z,30.72
2022-08-09T09:55:24.561Z,31.16
2022-08-09T09:56:19.912Z,31.04
2022-08-09T09:58:02.099Z,30.73
2022-08-09T09:58:18.661Z,31.59
2022-08-09T09:59:16.743Z,31.86
2022-08-09T10:00:16.413Z,31.24
2022-08-09T10:01:30.123Z,31.13
2022-08-09T10:02:16.876Z,31.66
2022-08-09T10:03:16.343Z,31.83
2022-08-09T10:04:22.546Z,32.21
2022-08-09T10:05:16.341Z,32.80
2022-08-09T10:06:16.495Z,33.06
2022-08-09T10:07:16.951Z,32.93
2022-08-09T10:08:26.115Z,32.58
2022-08-09T10:09:22.999Z,32.78
2022-08-09T10:10:18.518Z,33.33
2022-08-09T10:11:52.779Z,33.62
2022-08-09T10:12:28.268Z,32.11
2022-08-09T10:13:23.138Z,31.53
2022-08-09T10:14:17.203Z,32.48
2022-08-09T10:15:17.391Z,33.07
2022-08-09T10:16:56.420Z,33.07
2022-08-09T10:17:24.225Z,33.14
2022-08-09T10:18:18.444Z,33.57
2022-08-09T10:19:16.998Z,33.73
2022-08-09T10:20:17.015Z,33.47
2022-08-09T10:21:17.148Z,34.04
2022-08-09T10:22:16.712Z,34.27
2022-08-09T10:23:17.106Z,33.79
2022-08-09T10:24:25.509Z,32.61
2022-08-09T10:25:16.349Z,31.38
2022-08-09T10:26:19.474Z,30.56
2022-08-09T10:27:17.509Z,31.10
2022-08-09T10:28:16.907Z,31.13
2022-08-09T10:29:21.526Z,31.31
2022-08-09T10:31:15.810Z,30.04
2022-08-09T10:32:40.049Z,30.48
2022-08-09T10:33:30.021Z,30.52
2022-08-09T10:34:19.147Z,30.51
2022-08-09T10:35:16.900Z,30.20
2022-08-09T10:36:16.696Z,30.08
2022-08-09T10:37:16.922Z,30.23
2022-08-09T10:38:34.207Z,31.09
2022-08-09T10:39:18.467Z,31.55
2022-08-09T10:40:33.647Z,31.17
2022-08-09T10:41:16.434Z,31.04
2022-08-09T10:42:16.842Z,31.23
2022-08-09T10:43:16.882Z,31.30
2022-08-09T10:44:16.511Z,31.32
2022-08-09T10:45:16.791Z,30.65
2022-08-09T10:46:21.100Z,31.14
2022-08-09T10:47:28.181Z,31.94
2022-08-09T10:48:29.465Z,32.51
2022-08-09T10:49:17.273Z,33.14
2022-08-09T10:50:17.348Z,32.11
2022-08-09T10:51:17.313Z,31.57
2022-08-09T10:52:17.765Z,32.23
2022-08-09T10:53:17.116Z,32.31
2022-08-09T10:54:16.834Z,32.72
2022-08-09T10:55:17.298Z,32.85
2022-08-09T10:56:17.609Z,33.24
2022-08-09T10:57:16.586Z,33.79
2022-08-09T10:58:17.292Z,33.71
2022-08-09T10:59:16.638Z,33.61
2022-08-09T11:00:16.489Z,33.13
2022-08-09T11:03:03.621Z,32.45
2022-08-09T11:03:10.696Z,32.02
2022-08-09T11:03:19.754Z,32.63
2022-08-09T11:04:19.591Z,33.14
2022-08-09T11:05:24.780Z,33.23
2022-08-09T11:06:16.811Z,33.44
2022-08-09T11:07:17.312Z,33.52
2022-08-09T11:08:16.511Z,31.94
2022-08-09T11:09:16.680Z,32.28
2022-08-09T11:10:16.947Z,32.45
2022-08-09T11:11:16.396Z,32.06
2022-08-09T11:12:17.259Z,32.91
2022-08-09T11:13:49.015Z,33.18
2022-08-09T11:14:16.571Z,33.35
2022-08-09T11:15:18.571Z,34.46
2022-08-09T11:16:16.656Z,34.53
2022-08-09T11:17:19.293Z,33.97
2022-08-09T11:18:17.237Z,32.61
2022-08-09T11:19:16.444Z,32.90
2022-08-09T11:20:20.068Z,33.00
2022-08-09T11:21:16.914Z,33.20
2022-08-09T11:22:18.987Z,32.48
2022-08-09T11:23:16.805Z,32.24
2022-08-09T11:24:16.551Z,32.18
2022-08-09T11:25:17.038Z,32.50
2022-08-09T11:26:16.995Z,32.87
2022-08-09T11:27:16.450Z,32.61
2022-08-09T11:28:28.007Z,32.89
2022-08-09T11:29:16.660Z,33.42
2022-08-09T11:30:21.719Z,33.07
2022-08-09T11:31:16.446Z,32.95
2022-08-09T11:32:16.895Z,33.48
2022-08-09T11:33:16.349Z,34.36
2022-08-09T11:34:16.774Z,34.65
2022-08-09T11:35:17.125Z,34.83
2022-08-09T11:36:30.567Z,33.96
2022-08-09T11:37:18.100Z,31.45
2022-08-09T11:38:16.416Z,31.40
2022-08-09T11:39:16.869Z,30.76
2022-08-09T11:40:17.897Z,32.03
2022-08-09T11:41:16.518Z,32.38
2022-08-09T11:42:16.880Z,31.52
2022-08-09T11:43:16.706Z,31.99
2022-08-09T11:44:17.147Z,32.37
2022-08-09T11:45:17.586Z,31.28
2022-08-09T11:46:18.579Z,31.58
2022-08-09T11:47:16.827Z,31.41
2022-08-09T11:48:19.630Z,31.76
2022-08-09T11:49:16.963Z,31.85
2022-08-09T11:50:54.630Z,31.55
2022-08-09T11:51:19.885Z,31.24
2022-08-09T11:52:49.733Z,31.42
2022-08-09T11:53:44.129Z,31.34
2022-08-09T11:54:21.748Z,30.85
2022-08-09T11:55:16.827Z,30.56
2022-08-09T11:56:19.293Z,30.31
2022-08-09T11:57:16.409Z,29.65
2022-08-09T11:58:16.602Z,28.87
2022-08-09T11:59:17.023Z,28.89
2022-08-09T12:00:18.730Z,28.97
2022-08-09T12:01:37.941Z,28.27
2022-08-09T12:02:34.934Z,27.86
2022-08-09T12:03:32.011Z,28.06
2022-08-09T12:04:20.741Z,28.56
2022-08-09T12:05:17.415Z,28.64
2022-08-09T12:06:16.497Z,28.48
2022-08-09T12:07:16.968Z,28.07
2022-08-09T12:08:19.908Z,28.13
2022-08-09T12:09:19.267Z,28.26
2022-08-09T12:10:39.171Z,28.07
2022-08-09T12:11:16.920Z,28.10
2022-08-09T12:12:20.708Z,27.58
2022-08-09T12:14:06.634Z,27.65
2022-08-09T12:14:18.136Z,27.66
2022-08-09T12:15:16.766Z,27.75
2022-08-09T12:16:30.864Z,27.90
2022-08-09T12:17:27.723Z,27.76
2022-08-09T12:18:17.082Z,27.59
2022-08-09T12:19:16.702Z,27.45
2022-08-09T12:20:20.078Z,27.30
2022-08-09T12:21:26.705Z,27.20
2022-08-09T12:22:17.059Z,27.13
2022-08-09T12:23:17.410Z,26.93
2022-08-09T12:24:17.187Z,27.00
2022-08-09T12:25:16.908Z,27.21
2022-08-09T12:26:19.469Z,27.35
2022-08-09T12:29:01.035Z,27.40
2022-08-09T12:29:01.250Z,27.55
2022-08-09T12:29:29.389Z,27.47
2022-08-09T12:30:35.204Z,27.45
2022-08-09T12:31:30.734Z,27.34
2022-08-09T12:32:16.985Z,27.41
2022-08-09T12:33:16.445Z,27.48
2022-08-09T12:34:16.902Z,27.61
2022-08-09T12:35:19.013Z,27.55
2022-08-09T12:36:27.948Z,27.42
2022-08-09T12:37:22.375Z,27.23
2022-08-09T12:38:17.223Z,27.27
2022-08-09T12:39:17.109Z,27.38
2022-08-09T12:40:16.889Z,27.48
2022-08-09T12:41:16.319Z,27.52
2022-08-09T12:42:16.846Z,27.41
2022-08-09T12:43:16.345Z,27.41
2022-08-09T12:44:16.783Z,27.40
2022-08-09T12:45:33.009Z,27.52
2022-08-09T12:46:16.713Z,27.64
2022-08-09T12:47:17.180Z,27.51
2022-08-09T12:48:20.296Z,27.34
2022-08-09T12:49:16.639Z,27.24
2022-08-09T12:50:17.172Z,27.28
2022-08-09T12:51:30.586Z,27.31
2022-08-09T12:52:16.563Z,27.37
2022-08-09T12:53:17.970Z,27.23